createdAt,value
2018-03-21T00:00:06.661Z,5.63
2018-03-21T00:02:40.024Z,4.67
2018-03-21T00:05:13.088Z,4.77
2018-03-21T00:07:46.023Z,4.77
2018-03-21T00:10:18.532Z,4.97
2018-03-21T00:12:51.637Z,4.53
2018-03-21T00:15:24.361Z,5.73
2018-03-21T00:17:56.966Z,5.63
2018-03-21T00:20:30.142Z,5.40
2018-03-21T00:23:04.115Z,6.40
2018-03-21T00:25:36.481Z,6.93
2018-03-21T00:28:09.018Z,7.63
2018-03-21T00:30:42.201Z,5.70
2018-03-21T00:33:15.571Z,6.73
2018-03-21T00:35:55.072Z,6.83
2018-03-21T00:38:28.487Z,6.47
2018-03-21T00:41:01.118Z,6.60
2018-03-21T00:43:34.604Z,7.03
2018-03-21T00:46:07.178Z,8.10
2018-03-21T00:48:39.639Z,7.03
2018-03-21T00:51:12.060Z,7.43
2018-03-21T00:53:44.448Z,7.47
2018-03-21T00:56:16.803Z,9.00
2018-03-21T00:58:49.201Z,8.50
2018-03-21T01:01:21.826Z,10.77
2018-03-21T01:03:54.372Z,8.63
2018-03-21T01:06:26.766Z,7.67
2018-03-21T01:08:59.237Z,7.77
2018-03-21T01:11:32.501Z,8.37
2018-03-21T01:14:04.892Z,6.77
2018-03-21T01:16:37.298Z,9.00
2018-03-21T01:19:09.967Z,7.50
2018-03-21T01:21:42.278Z,7.17
2018-03-21T01:24:14.833Z,6.87
2018-03-21T01:26:47.173Z,7.83
2018-03-21T01:29:19.623Z,7.73
2018-03-21T01:31:53.609Z,7.30
2018-03-21T01:34:26.362Z,6.57
2018-03-21T01:36:59.697Z,7.33
2018-03-21T01:39:32.136Z,7.97
2018-03-21T01:42:04.764Z,7.57
2018-03-21T01:44:37.466Z,7.73
2018-03-21T01:47:09.911Z,6.47
2018-03-21T01:49:42.256Z,8.20
2018-03-21T01:52:15.537Z,6.80
2018-03-21T01:54:47.916Z,6.93
2018-03-21T01:57:20.351Z,6.47
2018-03-21T01:59:53.647Z,6.90
2018-03-21T02:02:26.277Z,7.10
2018-03-21T02:04:59.369Z,6.83
2018-03-21T02:07:32.062Z,6.90
2018-03-21T02:10:04.683Z,6.40
2018-03-21T02:12:37.255Z,6.13
2018-03-21T02:15:10.377Z,7.93
2018-03-21T02:17:43.651Z,7.40
2018-03-21T02:20:16.791Z,8.03
2018-03-21T02:22:50.136Z,8.10
2018-03-21T02:25:22.636Z,8.47
2018-03-21T02:27:55.492Z,8.57
2018-03-21T02:30:27.972Z,8.63
2018-03-21T02:33:01.301Z,9.37
2018-03-21T02:35:33.780Z,7.23
2018-03-21T02:38:06.263Z,8.77
2018-03-21T02:40:39.408Z,8.20
2018-03-21T02:43:12.727Z,8.10
2018-03-21T02:45:45.331Z,6.87
2018-03-21T02:48:17.819Z,7.20
2018-03-21T02:50:50.405Z,7.17
2018-03-21T02:53:22.948Z,7.93
2018-03-21T02:55:55.256Z,8.07
2018-03-21T02:58:27.706Z,8.43
2018-03-21T03:01:00.397Z,7.03
2018-03-21T03:03:33.419Z,6.27
2018-03-21T03:06:05.882Z,6.27
2018-03-21T03:08:38.423Z,6.00
2018-03-21T03:11:11.688Z,6.30
2018-03-21T03:13:44.052Z,7.07
2018-03-21T03:16:16.650Z,6.57
2018-03-21T03:18:49.121Z,6.27
2018-03-21T03:21:21.648Z,5.63
2018-03-21T03:23:54.204Z,5.73
2018-03-21T03:26:26.741Z,5.70
2018-03-21T03:28:59.994Z,5.30
2018-03-21T03:31:32.810Z,6.47
2018-03-21T03:34:05.371Z,5.23
2018-03-21T03:36:37.821Z,5.50
2018-03-21T03:39:10.468Z,5.17
2018-03-21T03:41:43.561Z,5.07
2018-03-21T03:44:16.126Z,5.60
2018-03-21T03:46:48.676Z,4.20
2018-03-21T03:49:21.021Z,4.70
2018-03-21T03:51:53.689Z,4.47
2018-03-21T03:54:27.002Z,6.17
2018-03-21T03:56:59.537Z,5.13
2018-03-21T03:59:31.996Z,4.90
2018-03-21T04:02:05.183Z,4.40
2018-03-21T04:04:38.536Z,5.20
2018-03-21T04:07:10.902Z,5.93
2018-03-21T04:09:43.308Z,4.60
2018-03-21T04:12:16.468Z,5.60
2018-03-21T04:14:48.937Z,5.77
2018-03-21T04:17:21.304Z,5.50
2018-03-21T04:19:53.711Z,6.77
2018-03-21T04:22:26.267Z,7.00
2018-03-21T04:24:58.812Z,6.83
2018-03-21T04:27:31.408Z,7.40
2018-03-21T04:30:04.148Z,7.67
2018-03-21T04:32:36.740Z,8.43
2018-03-21T04:35:09.301Z,5.80
2018-03-21T04:37:42.053Z,6.97
2018-03-21T04:40:14.553Z,7.50
2018-03-21T04:42:46.914Z,8.10
2018-03-21T04:45:19.914Z,7.10
2018-03-21T04:47:52.709Z,6.30
2018-03-21T04:50:26.242Z,7.43
2018-03-21T04:52:58.842Z,6.10
2018-03-21T04:55:31.363Z,6.07
2018-03-21T04:58:04.456Z,6.70
2018-03-21T05:00:36.960Z,5.77
2018-03-21T05:03:09.658Z,6.23
2018-03-21T05:05:42.187Z,6.07
2018-03-21T05:08:14.896Z,5.43
2018-03-21T05:10:47.412Z,4.97
2018-03-21T05:13:20.120Z,5.80
2018-03-21T05:15:52.702Z,4.97
2018-03-21T05:18:25.302Z,4.80
2018-03-21T05:20:57.673Z,4.97
2018-03-21T05:23:30.962Z,5.00
2018-03-21T05:26:04.188Z,4.93
2018-03-21T05:28:36.752Z,5.20
2018-03-21T05:31:09.252Z,6.33
2018-03-21T05:33:42.463Z,4.47
2018-03-21T05:36:15.631Z,4.93
2018-03-21T05:48:33.958Z,5.53
2018-03-21T05:51:06.572Z,6.57
2018-03-21T05:53:39.234Z,6.00
2018-03-21T05:56:12.754Z,5.07
2018-03-21T05:58:45.399Z,5.30
2018-03-21T06:01:18.129Z,5.53
2018-03-21T06:03:50.607Z,6.63
2018-03-21T06:06:23.071Z,6.73
2018-03-21T06:08:55.643Z,5.50
2018-03-21T06:11:28.231Z,5.67
2018-03-21T06:14:00.982Z,5.77
2018-03-21T06:16:33.587Z,5.63
2018-03-21T06:19:06.356Z,5.33
2018-03-21T06:21:39.719Z,5.47
2018-03-21T06:24:12.517Z,5.27
2018-03-21T06:26:44.998Z,6.13
2018-03-21T06:29:17.583Z,5.87
2018-03-21T06:31:50.077Z,4.90
2018-03-21T06:34:22.832Z,5.63
2018-03-21T06:36:55.293Z,5.90
2018-03-21T06:39:29.344Z,6.07
2018-03-21T06:42:01.756Z,6.17
2018-03-21T06:44:34.296Z,7.07
2018-03-21T06:47:06.913Z,5.37
2018-03-21T06:49:39.332Z,6.33
2018-03-21T06:52:12.009Z,7.10
2018-03-21T06:54:44.398Z,6.17
2018-03-21T06:57:17.103Z,7.03
2018-03-21T06:59:49.587Z,7.37
2018-03-21T07:02:22.889Z,7.83
2018-03-21T07:04:55.472Z,8.37
2018-03-21T07:07:28.633Z,5.53
2018-03-21T07:10:01.593Z,5.93
2018-03-21T07:12:35.008Z,6.93
2018-03-21T07:15:20.473Z,6.87
2018-03-21T07:17:53.673Z,5.87
2018-03-21T07:20:26.239Z,5.80
2018-03-21T07:22:58.901Z,6.70
2018-03-21T07:25:32.306Z,5.60
2018-03-21T07:28:04.788Z,5.93
2018-03-21T07:30:37.977Z,6.33
2018-03-21T07:33:11.781Z,5.87
2018-03-21T07:35:45.054Z,7.37
2018-03-21T07:38:17.371Z,6.20
2018-03-21T07:40:50.592Z,5.80
2018-03-21T07:43:23.899Z,6.83
2018-03-21T07:45:56.531Z,6.37
2018-03-21T07:48:28.911Z,6.20
2018-03-21T07:51:02.455Z,6.27
2018-03-21T07:53:35.632Z,6.13
2018-03-21T07:56:08.069Z,6.30
2018-03-21T07:58:40.779Z,6.63
2018-03-21T08:01:14.073Z,6.37
2018-03-21T08:03:46.680Z,5.60
2018-03-21T08:06:19.085Z,7.23
2018-03-21T08:08:51.658Z,6.40
2018-03-21T08:11:24.305Z,7.00
2018-03-21T08:13:57.667Z,6.50
2018-03-21T08:16:30.030Z,5.93
2018-03-21T08:19:03.953Z,5.87
2018-03-21T08:21:36.342Z,6.50
2018-03-21T08:24:08.734Z,5.43
2018-03-21T08:26:41.230Z,6.87
2018-03-21T08:29:13.774Z,6.97
2018-03-21T08:31:53.383Z,6.37
2018-03-21T08:34:25.982Z,7.20
2018-03-21T08:36:58.674Z,7.40
2018-03-21T08:39:31.308Z,7.63
2018-03-21T08:42:03.770Z,7.10
2018-03-21T08:44:36.313Z,6.63
2018-03-21T08:47:08.707Z,7.00
2018-03-21T08:49:41.831Z,5.67
2018-03-21T08:52:15.463Z,7.13
2018-03-21T08:54:47.949Z,6.63
2018-03-21T08:57:20.306Z,6.37
2018-03-21T08:59:52.914Z,6.03
2018-03-21T09:02:26.090Z,6.00
2018-03-21T09:04:58.450Z,6.57
2018-03-21T09:07:32.330Z,5.60
2018-03-21T09:10:04.714Z,5.73
2018-03-21T09:12:37.104Z,6.20
2018-03-21T09:15:09.698Z,4.63
2018-03-21T09:17:42.258Z,5.90
2018-03-21T09:20:15.075Z,5.30
2018-03-21T09:22:47.423Z,6.30
2018-03-21T09:25:20.493Z,7.10
2018-03-21T09:27:52.865Z,5.53
2018-03-21T09:30:25.323Z,5.53
2018-03-21T09:32:58.804Z,5.30
2018-03-21T09:35:31.187Z,4.80
2018-03-21T09:38:04.269Z,5.23
2018-03-21T09:40:37.510Z,5.50
2018-03-21T09:43:11.001Z,5.93
2018-03-21T09:45:43.715Z,6.30
2018-03-21T09:48:16.727Z,6.27
2018-03-21T09:50:49.802Z,6.70
2018-03-21T09:53:22.132Z,5.50
2018-03-21T09:55:54.713Z,6.40
2018-03-21T09:58:27.150Z,6.47
2018-03-21T10:00:59.547Z,4.73
2018-03-21T10:03:32.015Z,4.40
2018-03-21T10:06:04.584Z,4.07
2018-03-21T10:08:37.028Z,4.43
2018-03-21T10:11:09.529Z,4.50
2018-03-21T10:13:42.064Z,5.17
2018-03-21T10:16:14.393Z,6.40
2018-03-21T10:18:47.094Z,6.87
2018-03-21T10:21:20.359Z,8.00
2018-03-21T10:23:52.831Z,7.73
2018-03-21T10:26:25.524Z,7.83
2018-03-21T10:28:58.049Z,5.37
2018-03-21T10:31:30.530Z,5.20
2018-03-21T10:34:03.065Z,7.00
2018-03-21T10:36:35.789Z,6.70
2018-03-21T10:39:08.605Z,7.30
2018-03-21T10:41:41.213Z,5.93
2018-03-21T10:44:13.837Z,6.10
2018-03-21T10:46:46.280Z,5.50
2018-03-21T10:49:20.119Z,5.73
2018-03-21T10:51:53.048Z,6.33
2018-03-21T10:54:25.763Z,6.33
2018-03-21T10:56:58.123Z,5.50
2018-03-21T10:59:30.608Z,6.23
2018-03-21T11:02:09.158Z,6.30
2018-03-21T11:04:42.400Z,6.87
2018-03-21T11:07:14.971Z,6.63
2018-03-21T11:09:47.529Z,5.57
2018-03-21T11:12:20.108Z,5.57
2018-03-21T11:14:52.778Z,5.87
2018-03-21T11:17:25.248Z,4.90
2018-03-21T11:19:57.989Z,6.23
2018-03-21T11:22:31.267Z,5.60
2018-03-21T11:25:03.865Z,4.50
2018-03-21T11:27:36.473Z,5.37
2018-03-21T11:30:09.105Z,5.90
2018-03-21T11:32:41.756Z,5.90
2018-03-21T11:35:14.199Z,6.37
2018-03-21T11:37:46.908Z,5.67
2018-03-21T11:40:19.521Z,5.20
2018-03-21T11:42:51.913Z,5.50
2018-03-21T11:45:24.513Z,5.30
2018-03-21T11:47:59.464Z,5.60
2018-03-21T11:50:31.934Z,5.70
2018-03-21T11:53:05.103Z,6.07
2018-03-21T11:55:37.759Z,6.13
2018-03-21T11:58:10.232Z,5.73
2018-03-21T12:00:43.481Z,5.63
2018-03-21T12:03:15.854Z,5.73
2018-03-21T12:05:48.279Z,6.03
2018-03-21T12:08:20.773Z,6.00
2018-03-21T12:10:53.614Z,6.47
2018-03-21T12:13:26.250Z,6.40
2018-03-21T12:15:59.110Z,5.90
2018-03-21T12:18:31.635Z,5.50
2018-03-21T12:21:04.259Z,5.53
2018-03-21T12:23:36.785Z,5.70
2018-03-21T12:26:09.404Z,5.93
2018-03-21T12:28:41.927Z,5.60
2018-03-21T12:31:14.649Z,4.93
2018-03-21T12:33:47.228Z,5.67
2018-03-21T12:36:19.738Z,4.90
2018-03-21T12:38:52.147Z,5.40
2018-03-21T12:41:24.628Z,6.33
2018-03-21T12:43:57.401Z,6.07
2018-03-21T12:46:30.533Z,6.43
2018-03-21T12:49:04.730Z,7.37
2018-03-21T12:51:37.355Z,6.90
2018-03-21T12:54:10.195Z,6.63
2018-03-21T12:56:42.644Z,6.67
2018-03-21T12:59:15.151Z,8.00
2018-03-21T13:01:47.723Z,7.53
2018-03-21T13:04:20.183Z,8.87
2018-03-21T13:06:52.784Z,8.90
2018-03-21T13:09:25.192Z,8.63
2018-03-21T13:11:57.780Z,8.97
2018-03-21T13:14:30.374Z,9.40
2018-03-21T13:17:03.136Z,8.43
2018-03-21T13:19:35.623Z,9.23
2018-03-21T13:22:07.992Z,9.20
2018-03-21T13:24:40.608Z,9.57
2018-03-21T13:27:13.114Z,9.10
2018-03-21T13:29:45.504Z,9.80
2018-03-21T13:32:18.703Z,9.73
2018-03-21T13:34:51.234Z,9.80
2018-03-21T13:37:24.522Z,8.60
2018-03-21T13:39:56.904Z,9.57
2018-03-21T13:42:29.556Z,9.67
2018-03-21T13:45:02.047Z,8.80
2018-03-21T13:47:34.643Z,9.77
2018-03-21T13:50:07.288Z,10.03
2018-03-21T13:52:40.593Z,9.93
2018-03-21T13:55:13.178Z,9.57
2018-03-21T13:57:52.640Z,8.60
2018-03-21T14:00:25.904Z,8.73
2018-03-21T14:02:59.325Z,9.53
2018-03-21T14:05:32.435Z,9.23
2018-03-21T14:08:05.020Z,8.60
2018-03-21T14:10:38.373Z,9.30
2018-03-21T14:13:11.043Z,9.10
2018-03-21T14:15:43.606Z,9.40
2018-03-21T14:18:16.199Z,7.43
2018-03-21T14:20:49.580Z,8.63
2018-03-21T14:23:22.229Z,8.10
2018-03-21T14:25:55.021Z,7.77
2018-03-21T14:28:27.746Z,8.83
2018-03-21T14:31:00.292Z,7.97
2018-03-21T14:33:32.956Z,7.60
2018-03-21T14:36:05.444Z,7.67
2018-03-21T14:38:37.873Z,7.70
2018-03-21T14:41:10.487Z,6.40
2018-03-21T14:43:43.024Z,7.40
2018-03-21T14:46:16.577Z,7.73
2018-03-21T14:48:50.040Z,7.13
2018-03-21T14:51:22.512Z,7.90
2018-03-21T14:53:55.089Z,7.33
2018-03-21T14:56:27.616Z,6.53
2018-03-21T14:58:59.963Z,6.50
2018-03-21T15:01:32.562Z,7.03
2018-03-21T15:04:06.021Z,7.60
2018-03-21T15:06:38.575Z,6.70
2018-03-21T15:09:11.245Z,7.30
2018-03-21T15:11:44.031Z,7.03
2018-03-21T15:14:16.605Z,7.67
2018-03-21T15:16:49.848Z,7.77
2018-03-21T15:19:22.370Z,6.87
2018-03-21T15:21:54.991Z,6.70
2018-03-21T15:24:28.319Z,6.67
2018-03-21T15:27:00.931Z,6.93
2018-03-21T15:29:33.460Z,6.60
2018-03-21T15:32:06.170Z,6.73
2018-03-21T15:34:38.754Z,6.93
2018-03-21T15:37:11.479Z,7.53
2018-03-21T15:39:45.561Z,8.03
2018-03-21T15:42:18.546Z,7.43
2018-03-21T15:44:51.824Z,7.90
2018-03-21T15:47:24.234Z,11.13
2018-03-21T15:49:56.805Z,10.40
2018-03-21T15:52:29.397Z,11.00
2018-03-21T15:55:02.088Z,10.50
2018-03-21T15:57:34.680Z,12.80
2018-03-21T16:00:07.005Z,12.90
2018-03-21T16:02:39.485Z,13.40
2018-03-21T16:05:12.105Z,13.40
2018-03-21T16:07:44.503Z,12.33
2018-03-21T16:10:16.988Z,10.40
2018-03-21T16:12:50.312Z,11.00
2018-03-21T16:15:23.518Z,11.40
2018-03-21T16:17:56.018Z,12.17
2018-03-21T16:20:28.750Z,12.23
2018-03-21T16:23:01.175Z,10.13
2018-03-21T16:25:33.881Z,12.57
2018-03-21T16:28:06.304Z,10.73
2018-03-21T16:30:39.530Z,10.77
2018-03-21T16:33:12.776Z,10.67
2018-03-21T16:35:45.654Z,10.63
2018-03-21T16:38:18.949Z,10.17
2018-03-21T16:40:52.841Z,11.17
2018-03-21T16:43:25.343Z,12.60
2018-03-21T16:45:57.922Z,11.20
2018-03-21T16:48:31.225Z,10.83
2018-03-21T16:51:03.776Z,9.73
2018-03-21T16:53:36.380Z,10.30
2018-03-21T16:56:08.907Z,10.13
2018-03-21T16:58:42.135Z,10.10
2018-03-21T17:01:14.660Z,7.67
2018-03-21T17:03:48.050Z,7.90
2018-03-21T17:06:21.304Z,7.43
2018-03-21T17:08:54.056Z,7.20
2018-03-21T17:11:26.522Z,7.80
2018-03-21T17:13:59.666Z,7.67
2018-03-21T17:16:32.176Z,8.20
2018-03-21T17:19:04.644Z,8.33
2018-03-21T17:21:37.307Z,9.30
2018-03-21T17:24:09.927Z,8.10
2018-03-21T17:26:42.511Z,7.90
2018-03-21T17:29:15.708Z,8.60
2018-03-21T17:31:48.296Z,8.97
2018-03-21T17:34:21.512Z,8.27
2018-03-21T17:36:54.102Z,9.23
2018-03-21T17:39:26.794Z,9.50
2018-03-21T17:41:59.351Z,9.37
2018-03-21T17:44:32.077Z,9.97
2018-03-21T17:47:04.449Z,9.80
2018-03-21T17:49:37.088Z,11.60
2018-03-21T17:52:09.644Z,10.60
2018-03-21T17:54:41.965Z,11.17
2018-03-21T17:57:14.537Z,14.73
2018-03-21T17:59:47.125Z,15.27
2018-03-21T18:02:19.801Z,16.37
2018-03-21T18:04:52.395Z,16.03
2018-03-21T18:07:25.035Z,15.93
2018-03-21T18:09:57.442Z,15.13
2018-03-21T18:12:30.641Z,16.40
2018-03-21T18:15:03.373Z,13.53
2018-03-21T18:17:36.000Z,15.93
2018-03-21T18:20:08.365Z,17.13
2018-03-21T18:22:40.902Z,17.53
2018-03-21T18:25:14.357Z,17.10
2018-03-21T18:27:47.116Z,15.90
2018-03-21T18:30:19.751Z,17.33
2018-03-21T18:32:53.041Z,19.10
2018-03-21T18:35:26.180Z,18.73
2018-03-21T18:37:58.732Z,27.10
2018-03-21T18:40:31.272Z,24.77
2018-03-21T18:43:04.305Z,24.27
2018-03-21T18:45:36.707Z,22.13
2018-03-21T18:48:09.330Z,22.13
2018-03-21T18:50:42.023Z,23.73
2018-03-21T18:53:14.657Z,20.43
2018-03-21T18:55:47.979Z,19.50
2018-03-21T18:58:20.382Z,19.80
2018-03-21T19:00:53.325Z,20.20
2018-03-21T19:03:25.717Z,20.97
2018-03-21T19:05:58.411Z,20.70
2018-03-21T19:08:30.982Z,21.00
2018-03-21T19:11:03.857Z,18.70
2018-03-21T19:13:36.517Z,20.73
2018-03-21T19:16:09.630Z,23.00
2018-03-21T19:18:42.194Z,20.77
2018-03-21T19:21:14.840Z,21.47
2018-03-21T19:23:48.369Z,25.30
2018-03-21T19:26:22.336Z,20.03
2018-03-21T19:28:54.877Z,21.83
2018-03-21T19:31:28.062Z,23.40
2018-03-21T19:34:01.242Z,25.77
2018-03-21T19:36:37.823Z,22.53
2018-03-21T19:39:10.300Z,21.27
2018-03-21T19:41:43.624Z,21.70
2018-03-21T19:44:16.265Z,25.27
2018-03-21T19:46:49.016Z,19.33
2018-03-21T19:49:22.508Z,24.17
2018-03-21T19:51:55.903Z,24.50
2018-03-21T19:54:28.776Z,19.57
2018-03-21T19:57:02.362Z,24.97
2018-03-21T19:59:34.895Z,25.50
2018-03-21T20:02:07.497Z,23.27
2018-03-21T20:04:40.341Z,22.87
2018-03-21T20:07:13.770Z,23.47
2018-03-21T20:09:46.297Z,21.77
2018-03-21T20:12:18.919Z,20.27
2018-03-21T20:14:53.558Z,23.93
2018-03-21T20:17:26.066Z,23.00
2018-03-21T20:19:58.916Z,27.57
2018-03-21T20:22:32.386Z,21.00
2018-03-21T20:25:05.208Z,24.00
2018-03-21T20:27:37.694Z,28.60
2018-03-21T20:30:10.191Z,25.47
2018-03-21T20:32:43.634Z,24.17
2018-03-21T20:35:16.204Z,25.85
2018-03-21T20:37:42.645Z,25.57
2018-03-21T20:40:09.244Z,23.67
2018-03-21T20:42:36.582Z,22.63
2018-03-21T20:45:03.773Z,21.63
2018-03-21T20:47:30.217Z,25.47
2018-03-21T20:49:56.640Z,26.50
2018-03-21T20:52:23.671Z,22.40
2018-03-21T20:54:50.112Z,27.53
2018-03-21T20:57:16.476Z,24.87
2018-03-21T20:59:42.976Z,23.73
2018-03-21T21:02:09.351Z,23.67
2018-03-21T21:04:41.949Z,22.40
2018-03-21T21:07:14.613Z,20.80
2018-03-21T21:09:47.398Z,25.53
2018-03-21T21:12:20.231Z,24.47
2018-03-21T21:14:52.766Z,27.17
2018-03-21T21:17:26.210Z,23.63
2018-03-21T21:19:58.790Z,25.07
2018-03-21T21:22:31.683Z,22.40
2018-03-21T21:25:04.200Z,25.37
2018-03-21T21:27:36.916Z,24.43
2018-03-21T21:30:09.440Z,23.53
2018-03-21T21:32:42.075Z,22.73
2018-03-21T21:35:14.836Z,23.73
2018-03-21T21:37:48.270Z,23.00
2018-03-21T21:40:20.854Z,23.23
2018-03-21T21:42:53.366Z,21.50
2018-03-21T21:45:25.900Z,22.50
2018-03-21T21:47:58.514Z,22.43
2018-03-21T21:50:31.249Z,21.30
2018-03-21T21:53:03.806Z,22.33
2018-03-21T21:55:36.497Z,22.77
2018-03-21T21:58:09.859Z,20.27
2018-03-21T22:00:42.545Z,21.87
2018-03-21T22:03:15.231Z,21.50
2018-03-21T22:05:49.186Z,19.47
2018-03-21T22:08:22.360Z,20.40
2018-03-21T22:10:54.799Z,19.83
2018-03-21T22:13:27.388Z,20.53
2018-03-21T22:15:59.961Z,18.87
2018-03-21T22:18:32.432Z,19.40
2018-03-21T22:21:05.777Z,19.80
2018-03-21T22:23:38.180Z,16.87
2018-03-21T22:26:10.900Z,17.03
2018-03-21T22:28:44.192Z,18.43
2018-03-21T22:31:17.377Z,19.97
2018-03-21T22:33:49.852Z,18.23
2018-03-21T22:36:23.056Z,17.10
2018-03-21T22:38:56.271Z,19.80
2018-03-21T22:41:28.937Z,18.03
2018-03-21T22:44:01.303Z,19.53
2018-03-21T22:46:33.932Z,17.33
2018-03-21T22:49:06.592Z,18.90
2018-03-21T22:51:39.255Z,17.10
2018-03-21T22:54:11.741Z,19.37
2018-03-21T22:56:44.269Z,20.47
2018-03-21T22:59:16.849Z,19.97
2018-03-21T23:01:49.380Z,17.30
2018-03-21T23:04:21.951Z,18.33
2018-03-21T23:06:55.212Z,17.80
2018-03-21T23:09:28.637Z,18.60
2018-03-21T23:12:01.152Z,19.00
2018-03-21T23:14:34.780Z,18.57
2018-03-21T23:17:08.837Z,18.03
2018-03-21T23:19:41.932Z,18.90
2018-03-21T23:22:15.155Z,19.37
2018-03-21T23:24:47.851Z,17.53
2018-03-21T23:27:20.502Z,18.13
2018-03-21T23:29:53.098Z,18.10
2018-03-21T23:32:26.425Z,20.57
2018-03-21T23:34:58.997Z,18.83
2018-03-21T23:37:31.459Z,19.10
2018-03-21T23:40:05.282Z,17.97
2018-03-21T23:42:37.966Z,19.47
2018-03-21T23:45:10.389Z,20.07
2018-03-21T23:47:42.857Z,19.27
2018-03-21T23:50:15.533Z,20.13
2018-03-21T23:52:48.069Z,20.50
2018-03-21T23:55:21.193Z,19.40
2018-03-21T23:57:54.621Z,18.53
